sensor_id;sensor_type;location;lat;lon;timestamp;pressure;altitude;pressure_sealevel;temperature;humidity
76229;BME280;65021;53.174;18.160;2023-01-15T00:01:24;99813.69;;;5.90;76.83
76229;BME280;65021;53.174;18.160;2023-01-15T00:03:53;99819.12;;;5.93;76.79
76229;BME280;65021;53.174;18.160;2023-01-15T00:06:21;99819.55;;;5.98;76.73
76229;BME280;65021;53.174;18.160;2023-01-15T00:08:49;99803.64;;;6.00;76.72
76229;BME280;65021;53.174;18.160;2023-01-15T00:11:16;99792.98;;;6.00;76.62
76229;BME280;65021;53.174;18.160;2023-01-15T00:13:43;99786.23;;;6.01;76.54
76229;BME280;65021;53.174;18.160;2023-01-15T00:16:16;99784.37;;;6.05;76.59
76229;BME280;65021;53.174;18.160;2023-01-15T00:18:48;99772.79;;;6.11;76.19
76229;BME280;65021;53.174;18.160;2023-01-15T00:21:15;99769.42;;;6.16;76.14
76229;BME280;65021;53.174;18.160;2023-01-15T00:23:42;99774.98;;;6.18;76.03
76229;BME280;65021;53.174;18.160;2023-01-15T00:26:30;99772.14;;;6.19;75.90
76229;BME280;65021;53.174;18.160;2023-01-15T00:29:16;99776.98;;;6.22;76.09
76229;BME280;65021;53.174;18.160;2023-01-15T00:31:50;99786.35;;;6.25;75.59
76229;BME280;65021;53.174;18.160;2023-01-15T00:34:17;99794.51;;;6.27;75.21
76229;BME280;65021;53.174;18.160;2023-01-15T00:36:43;99787.52;;;6.28;75.12
76229;BME280;65021;53.174;18.160;2023-01-15T00:39:10;99790.88;;;6.28;75.41
76229;BME280;65021;53.174;18.160;2023-01-15T00:41:37;99789.83;;;6.30;75.28
76229;BME280;65021;53.174;18.160;2023-01-15T00:44:03;99787.98;;;6.33;75.04
76229;BME280;65021;53.174;18.160;2023-01-15T00:46:30;99788.09;;;6.36;74.86
76229;BME280;65021;53.174;18.160;2023-01-15T00:48:56;99785.91;;;6.35;74.65
76229;BME280;65021;53.174;18.160;2023-01-15T00:51:23;99777.28;;;6.34;74.66
76229;BME280;65021;53.174;18.160;2023-01-15T00:53:50;99769.45;;;6.34;74.81
76229;BME280;65021;53.174;18.160;2023-01-15T00:56:17;99755.49;;;6.37;74.53
76229;BME280;65021;53.174;18.160;2023-01-15T00:58:43;99739.64;;;6.40;74.22
76229;BME280;65021;53.174;18.160;2023-01-15T01:01:12;99723.55;;;6.38;74.44
76229;BME280;65021;53.174;18.160;2023-01-15T01:03:39;99714.00;;;6.32;74.23
76229;BME280;65021;53.174;18.160;2023-01-15T01:06:06;99707.11;;;6.28;74.29
76229;BME280;65021;53.174;18.160;2023-01-15T01:08:33;99711.52;;;6.28;74.38
76229;BME280;65021;53.174;18.160;2023-01-15T01:11:05;99713.89;;;6.35;74.32
76229;BME280;65021;53.174;18.160;2023-01-15T01:13:32;99714.61;;;6.41;74.53
76229;BME280;65021;53.174;18.160;2023-01-15T01:15:59;99708.04;;;6.43;74.38
76229;BME280;65021;53.174;18.160;2023-01-15T01:18:26;99699.38;;;6.44;74.33
76229;BME280;65021;53.174;18.160;2023-01-15T01:20:53;99695.54;;;6.45;74.08
76229;BME280;65021;53.174;18.160;2023-01-15T01:23:22;99692.77;;;6.52;73.79
76229;BME280;65021;53.174;18.160;2023-01-15T01:25:49;99699.73;;;6.59;74.11
76229;BME280;65021;53.174;18.160;2023-01-15T01:28:16;99717.12;;;6.64;73.96
76229;BME280;65021;53.174;18.160;2023-01-15T01:30:42;99720.98;;;6.66;73.92
76229;BME280;65021;53.174;18.160;2023-01-15T01:33:09;99699.30;;;6.67;73.73
76229;BME280;65021;53.174;18.160;2023-01-15T01:35:36;99689.14;;;6.67;73.42
76229;BME280;65021;53.174;18.160;2023-01-15T01:38:02;99681.65;;;6.68;73.43
76229;BME280;65021;53.174;18.160;2023-01-15T01:40:32;99674.27;;;6.70;73.68
76229;BME280;65021;53.174;18.160;2023-01-15T01:42:59;99675.63;;;6.72;73.36
76229;BME280;65021;53.174;18.160;2023-01-15T01:45:30;99678.84;;;6.75;73.17
76229;BME280;65021;53.174;18.160;2023-01-15T01:48:03;99683.91;;;6.74;73.01
76229;BME280;65021;53.174;18.160;2023-01-15T01:50:33;99686.09;;;6.73;73.25
76229;BME280;65021;53.174;18.160;2023-01-15T01:53:10;99681.86;;;6.71;72.75
76229;BME280;65021;53.174;18.160;2023-01-15T01:55:38;99665.00;;;6.73;72.76
76229;BME280;65021;53.174;18.160;2023-01-15T01:58:08;99660.82;;;6.77;72.54
76229;BME280;65021;53.174;18.160;2023-01-15T02:00:35;99660.39;;;6.81;72.61
76229;BME280;65021;53.174;18.160;2023-01-15T02:03:06;99648.95;;;6.81;72.27
76229;BME280;65021;53.174;18.160;2023-01-15T02:05:37;99648.52;;;6.81;72.50
76229;BME280;65021;53.174;18.160;2023-01-15T02:08:06;99647.08;;;6.81;72.07
76229;BME280;65021;53.174;18.160;2023-01-15T02:10:33;99638.14;;;6.84;72.26
76229;BME280;65021;53.174;18.160;2023-01-15T02:16:04;99637.86;;;6.95;71.87
76229;BME280;65021;53.174;18.160;2023-01-15T02:21:20;99637.44;;;6.95;71.24
76229;BME280;65021;53.174;18.160;2023-01-15T02:28:56;99606.69;;;6.93;71.79
76229;BME280;65021;53.174;18.160;2023-01-15T02:31:36;99602.89;;;6.97;71.65
76229;BME280;65021;53.174;18.160;2023-01-15T02:34:18;99601.95;;;7.00;71.63
76229;BME280;65021;53.174;18.160;2023-01-15T02:36:49;99591.70;;;7.02;71.16
76229;BME280;65021;53.174;18.160;2023-01-15T02:39:19;99581.59;;;7.02;71.02
76229;BME280;65021;53.174;18.160;2023-01-15T02:41:50;99577.63;;;7.00;71.13
76229;BME280;65021;53.174;18.160;2023-01-15T02:44:28;99574.02;;;6.99;71.15
76229;BME280;65021;53.174;18.160;2023-01-15T02:46:57;99568.48;;;7.01;70.90
76229;BME280;65021;53.174;18.160;2023-01-15T02:49:25;99566.85;;;7.06;70.89
76229;BME280;65021;53.174;18.160;2023-01-15T02:51:58;99565.78;;;7.08;70.89
76229;BME280;65021;53.174;18.160;2023-01-15T02:54:35;99564.55;;;7.08;70.70
76229;BME280;65021;53.174;18.160;2023-01-15T02:57:06;99567.35;;;7.07;70.98
76229;BME280;65021;53.174;18.160;2023-01-15T02:59:59;99563.23;;;7.05;70.54
76229;BME280;65021;53.174;18.160;2023-01-15T03:02:53;99558.67;;;7.03;70.73
76229;BME280;65021;53.174;18.160;2023-01-15T03:05:25;99560.34;;;7.03;70.78
76229;BME280;65021;53.174;18.160;2023-01-15T03:08:00;99548.08;;;7.07;70.31
76229;BME280;65021;53.174;18.160;2023-01-15T03:10:59;99542.81;;;7.13;70.60
76229;BME280;65021;53.174;18.160;2023-01-15T03:14:02;99539.20;;;7.16;70.22
76229;BME280;65021;53.174;18.160;2023-01-15T03:16:34;99529.98;;;7.16;70.33
76229;BME280;65021;53.174;18.160;2023-01-15T03:19:26;99529.04;;;7.16;70.41
76229;BME280;65021;53.174;18.160;2023-01-15T03:22:15;99527.95;;;7.14;70.76
76229;BME280;65021;53.174;18.160;2023-01-15T03:27:13;99525.08;;;7.14;70.24
76229;BME280;65021;53.174;18.160;2023-01-15T03:29:46;99527.55;;;7.18;69.90
76229;BME280;65021;53.174;18.160;2023-01-15T03:32:14;99527.30;;;7.22;69.82
76229;BME280;65021;53.174;18.160;2023-01-15T03:34:50;99526.05;;;7.24;69.68
76229;BME280;65021;53.174;18.160;2023-01-15T03:37:20;99526.59;;;7.23;70.01
76229;BME280;65021;53.174;18.160;2023-01-15T03:39:49;99525.25;;;7.22;70.05
76229;BME280;65021;53.174;18.160;2023-01-15T03:42:34;99526.85;;;7.22;69.73
76229;BME280;65021;53.174;18.160;2023-01-15T03:45:13;99528.29;;;7.22;69.89
76229;BME280;65021;53.174;18.160;2023-01-15T03:47:57;99534.25;;;7.25;69.98
76229;BME280;65021;53.174;18.160;2023-01-15T03:50:35;99531.73;;;7.31;69.70
76229;BME280;65021;53.174;18.160;2023-01-15T03:53:37;99525.15;;;7.35;69.76
76229;BME280;65021;53.174;18.160;2023-01-15T03:56:24;99510.82;;;7.35;69.91
76229;BME280;65021;53.174;18.160;2023-01-15T03:59:04;99499.03;;;7.33;70.36
76229;BME280;65021;53.174;18.160;2023-01-15T04:01:40;99500.05;;;7.31;70.26
76229;BME280;65021;53.174;18.160;2023-01-15T04:04:08;99507.05;;;7.29;70.28
76229;BME280;65021;53.174;18.160;2023-01-15T04:06:40;99515.50;;;7.32;70.31
76229;BME280;65021;53.174;18.160;2023-01-15T04:09:11;99518.38;;;7.36;70.47
76229;BME280;65021;53.174;18.160;2023-01-15T04:11:41;99515.14;;;7.39;70.57
76229;BME280;65021;53.174;18.160;2023-01-15T04:14:11;99514.77;;;7.40;70.54
76229;BME280;65021;53.174;18.160;2023-01-15T04:16:39;99509.63;;;7.40;70.52
76229;BME280;65021;53.174;18.160;2023-01-15T04:19:06;99500.67;;;7.41;70.46
76229;BME280;65021;53.174;18.160;2023-01-15T04:21:33;99493.87;;;7.40;70.61
76229;BME280;65021;53.174;18.160;2023-01-15T04:23:59;99488.30;;;7.37;70.52
76229;BME280;65021;53.174;18.160;2023-01-15T04:26:26;99484.67;;;7.35;70.78
76229;BME280;65021;53.174;18.160;2023-01-15T04:28:52;99476.13;;;7.37;70.88
76229;BME280;65021;53.174;18.160;2023-01-15T04:31:19;99475.30;;;7.40;70.77
76229;BME280;65021;53.174;18.160;2023-01-15T04:33:46;99472.57;;;7.43;70.70
76229;BME280;65021;53.174;18.160;2023-01-15T04:36:12;99468.54;;;7.43;70.79
76229;BME280;65021;53.174;18.160;2023-01-15T04:38:39;99464.65;;;7.42;70.89
76229;BME280;65021;53.174;18.160;2023-01-15T04:41:06;99454.17;;;7.40;70.64
76229;BME280;65021;53.174;18.160;2023-01-15T04:44:08;99451.27;;;7.38;70.81
76229;BME280;65021;53.174;18.160;2023-01-15T04:46:39;99446.09;;;7.35;71.05
76229;BME280;65021;53.174;18.160;2023-01-15T04:49:10;99439.90;;;7.34;71.06
76229;BME280;65021;53.174;18.160;2023-01-15T04:51:37;99442.52;;;7.36;70.93
76229;BME280;65021;53.174;18.160;2023-01-15T04:54:06;99431.56;;;7.40;70.98
76229;BME280;65021;53.174;18.160;2023-01-15T04:56:38;99432.31;;;7.43;71.16
76229;BME280;65021;53.174;18.160;2023-01-15T04:59:05;99432.50;;;7.44;71.11
76229;BME280;65021;53.174;18.160;2023-01-15T05:01:33;99427.13;;;7.43;71.08
76229;BME280;65021;53.174;18.160;2023-01-15T05:04:00;99423.58;;;7.42;71.19
76229;BME280;65021;53.174;18.160;2023-01-15T05:06:27;99414.00;;;7.42;71.21
76229;BME280;65021;53.174;18.160;2023-01-15T05:08:54;99408.83;;;7.43;71.32
76229;BME280;65021;53.174;18.160;2023-01-15T05:11:24;99409.02;;;7.46;71.43
76229;BME280;65021;53.174;18.160;2023-01-15T05:13:52;99406.25;;;7.50;71.40
76229;BME280;65021;53.174;18.160;2023-01-15T05:16:24;99407.44;;;7.52;71.31
76229;BME280;65021;53.174;18.160;2023-01-15T05:18:52;99400.71;;;7.50;71.51
76229;BME280;65021;53.174;18.160;2023-01-15T05:21:22;99392.13;;;7.48;71.45
76229;BME280;65021;53.174;18.160;2023-01-15T05:23:53;99391.11;;;7.45;71.65
76229;BME280;65021;53.174;18.160;2023-01-15T05:26:20;99390.70;;;7.44;71.74
76229;BME280;65021;53.174;18.160;2023-01-15T05:28:47;99392.09;;;7.45;71.92
76229;BME280;65021;53.174;18.160;2023-01-15T05:31:16;99396.90;;;7.49;71.84
76229;BME280;65021;53.174;18.160;2023-01-15T05:33:44;99398.98;;;7.53;72.01
76229;BME280;65021;53.174;18.160;2023-01-15T05:36:14;99398.23;;;7.54;72.04
76229;BME280;65021;53.174;18.160;2023-01-15T05:38:42;99394.84;;;7.52;72.55
76229;BME280;65021;53.174;18.160;2023-01-15T05:41:15;99387.14;;;7.47;72.59
76229;BME280;65021;53.174;18.160;2023-01-15T05:44:03;99385.38;;;7.43;72.93
76229;BME280;65021;53.174;18.160;2023-01-15T05:46:32;99381.70;;;7.40;73.06
76229;BME280;65021;53.174;18.160;2023-01-15T05:49:01;99380.62;;;7.41;73.27
76229;BME280;65021;53.174;18.160;2023-01-15T05:51:28;99381.03;;;7.40;73.34
76229;BME280;65021;53.174;18.160;2023-01-15T05:53:58;99382.33;;;7.37;74.10
76229;BME280;65021;53.174;18.160;2023-01-15T05:56:25;99381.52;;;7.30;74.35
76229;BME280;65021;53.174;18.160;2023-01-15T05:58:52;99378.49;;;7.21;74.69
76229;BME280;65021;53.174;18.160;2023-01-15T06:01:19;99384.77;;;7.18;74.93
76229;BME280;65021;53.174;18.160;2023-01-15T06:03:46;99385.83;;;7.14;75.86
76229;BME280;65021;53.174;18.160;2023-01-15T06:06:16;99382.16;;;7.08;75.80
76229;BME280;65021;53.174;18.160;2023-01-15T06:08:44;99382.49;;;7.01;76.57
76229;BME280;65021;53.174;18.160;2023-01-15T06:11:11;99387.30;;;6.92;77.37
76229;BME280;65021;53.174;18.160;2023-01-15T06:13:38;99390.89;;;6.84;77.58
76229;BME280;65021;53.174;18.160;2023-01-15T06:16:06;99393.22;;;6.80;77.80
76229;BME280;65021;53.174;18.160;2023-01-15T06:18:33;99395.57;;;6.78;77.48
76229;BME280;65021;53.174;18.160;2023-01-15T06:21:11;99396.51;;;6.75;77.76
76229;BME280;65021;53.174;18.160;2023-01-15T06:23:39;99391.62;;;6.72;77.86
76229;BME280;65021;53.174;18.160;2023-01-15T06:26:10;99390.98;;;6.73;78.24
76229;BME280;65021;53.174;18.160;2023-01-15T06:28:37;99393.67;;;6.73;78.22
76229;BME280;65021;53.174;18.160;2023-01-15T06:31:05;99393.20;;;6.72;78.52
76229;BME280;65021;53.174;18.160;2023-01-15T06:33:32;99394.01;;;6.69;78.71
76229;BME280;65021;53.174;18.160;2023-01-15T06:36:08;99389.63;;;6.65;78.82
76229;BME280;65021;53.174;18.160;2023-01-15T06:38:36;99385.85;;;6.63;78.88
76229;BME280;65021;53.174;18.160;2023-01-15T06:41:06;99387.02;;;6.62;78.99
76229;BME280;65021;53.174;18.160;2023-01-15T06:43:53;99381.87;;;6.62;79.15
76229;BME280;65021;53.174;18.160;2023-01-15T06:46:55;99378.97;;;6.61;79.66
76229;BME280;65021;53.174;18.160;2023-01-15T06:49:50;99374.83;;;6.60;80.03
76229;BME280;65021;53.174;18.160;2023-01-15T06:52:17;99370.57;;;6.60;79.92
76229;BME280;65021;53.174;18.160;2023-01-15T06:55:14;99365.86;;;6.62;79.90
76229;BME280;65021;53.174;18.160;2023-01-15T06:57:49;99356.61;;;6.65;80.13
76229;BME280;65021;53.174;18.160;2023-01-15T07:00:19;99364.60;;;6.67;80.26
76229;BME280;65021;53.174;18.160;2023-01-15T07:02:46;99361.94;;;6.67;80.52
76229;BME280;65021;53.174;18.160;2023-01-15T07:05:29;99355.23;;;6.67;80.59
76229;BME280;65021;53.174;18.160;2023-01-15T07:07:59;99350.87;;;6.68;81.09
76229;BME280;65021;53.174;18.160;2023-01-15T07:10:26;99351.88;;;6.70;80.77
76229;BME280;65021;53.174;18.160;2023-01-15T07:12:53;99351.52;;;6.72;81.09
76229;BME280;65021;53.174;18.160;2023-01-15T07:15:22;99353.49;;;6.76;81.11
76229;BME280;65021;53.174;18.160;2023-01-15T07:17:53;99349.88;;;6.77;81.17
76229;BME280;65021;53.174;18.160;2023-01-15T07:20:20;99350.02;;;6.79;81.78
76229;BME280;65021;53.174;18.160;2023-01-15T07:22:48;99345.19;;;6.82;81.52
76229;BME280;65021;53.174;18.160;2023-01-15T07:25:15;99347.38;;;6.84;81.63
76229;BME280;65021;53.174;18.160;2023-01-15T07:27:42;99343.38;;;6.87;82.01
76229;BME280;65021;53.174;18.160;2023-01-15T07:30:09;99344.44;;;6.88;82.26
76229;BME280;65021;53.174;18.160;2023-01-15T07:32:36;99344.70;;;6.87;81.93
76229;BME280;65021;53.174;18.160;2023-01-15T07:35:03;99346.25;;;6.87;82.05
76229;BME280;65021;53.174;18.160;2023-01-15T07:37:30;99348.25;;;6.88;82.34
76229;BME280;65021;53.174;18.160;2023-01-15T07:39:56;99344.88;;;6.91;82.22
76229;BME280;65021;53.174;18.160;2023-01-15T07:42:23;99347.56;;;6.95;82.24
76229;BME280;65021;53.174;18.160;2023-01-15T07:45:09;99346.77;;;6.98;82.05
76229;BME280;65021;53.174;18.160;2023-01-15T07:47:54;99344.42;;;7.00;82.08
76229;BME280;65021;53.174;18.160;2023-01-15T07:50:39;99342.45;;;7.06;82.29
76229;BME280;65021;53.174;18.160;2023-01-15T07:53:05;99340.84;;;7.11;82.41
76229;BME280;65021;53.174;18.160;2023-01-15T07:55:34;99341.08;;;7.16;82.17
76229;BME280;65021;53.174;18.160;2023-01-15T07:58:02;99338.48;;;7.20;82.63
76229;BME280;65021;53.174;18.160;2023-01-15T08:00:28;99338.40;;;7.23;82.72
76229;BME280;65021;53.174;18.160;2023-01-15T08:02:55;99332.42;;;7.23;82.68
76229;BME280;65021;53.174;18.160;2023-01-15T08:05:21;99333.89;;;7.24;82.69
76229;BME280;65021;53.174;18.160;2023-01-15T08:07:48;99331.55;;;7.29;83.06
76229;BME280;65021;53.174;18.160;2023-01-15T08:10:15;99333.20;;;7.33;83.04
76229;BME280;65021;53.174;18.160;2023-01-15T08:12:42;99330.90;;;7.36;82.86
76229;BME280;65021;53.174;18.160;2023-01-15T08:15:39;99331.39;;;7.39;82.92
76229;BME280;65021;53.174;18.160;2023-01-15T08:18:06;99335.52;;;7.44;82.76
76229;BME280;65021;53.174;18.160;2023-01-15T08:20:33;99334.13;;;7.47;83.07
76229;BME280;65021;53.174;18.160;2023-01-15T08:23:00;99339.24;;;7.50;82.99
76229;BME280;65021;53.174;18.160;2023-01-15T08:25:27;99336.68;;;7.54;82.90
76229;BME280;65021;53.174;18.160;2023-01-15T08:27:54;99336.50;;;7.59;83.53
76229;BME280;65021;53.174;18.160;2023-01-15T08:30:23;99336.20;;;7.62;83.25
76229;BME280;65021;53.174;18.160;2023-01-15T08:32:50;99336.79;;;7.66;83.42
76229;BME280;65021;53.174;18.160;2023-01-15T08:35:17;99338.13;;;7.70;83.45
76229;BME280;65021;53.174;18.160;2023-01-15T08:37:44;99337.33;;;7.75;83.47
76229;BME280;65021;53.174;18.160;2023-01-15T08:40:11;99333.44;;;7.79;83.49
76229;BME280;65021;53.174;18.160;2023-01-15T08:42:38;99333.14;;;7.83;83.54
76229;BME280;65021;53.174;18.160;2023-01-15T08:45:05;99325.75;;;7.85;83.63
76229;BME280;65021;53.174;18.160;2023-01-15T08:47:32;99327.52;;;7.87;83.53
76229;BME280;65021;53.174;18.160;2023-01-15T08:49:59;99320.79;;;7.87;83.55
76229;BME280;65021;53.174;18.160;2023-01-15T08:52:25;99318.93;;;7.91;83.50
76229;BME280;65021;53.174;18.160;2023-01-15T08:54:52;99318.46;;;7.95;83.55
76229;BME280;65021;53.174;18.160;2023-01-15T08:57:18;99319.98;;;7.99;83.69
76229;BME280;65021;53.174;18.160;2023-01-15T08:59:46;99319.73;;;8.02;83.78
76229;BME280;65021;53.174;18.160;2023-01-15T09:02:14;99319.66;;;8.07;83.85
76229;BME280;65021;53.174;18.160;2023-01-15T09:04:41;99314.98;;;8.10;83.98
76229;BME280;65021;53.174;18.160;2023-01-15T09:07:07;99315.84;;;8.14;83.93
76229;BME280;65021;53.174;18.160;2023-01-15T09:09:34;99310.44;;;8.17;83.92
76229;BME280;65021;53.174;18.160;2023-01-15T09:12:00;99310.08;;;8.21;83.95
76229;BME280;65021;53.174;18.160;2023-01-15T09:14:27;99311.98;;;8.24;83.99
76229;BME280;65021;53.174;18.160;2023-01-15T09:16:54;99311.63;;;8.26;83.99
76229;BME280;65021;53.174;18.160;2023-01-15T09:19:21;99314.77;;;8.29;83.87
76229;BME280;65021;53.174;18.160;2023-01-15T09:21:47;99315.95;;;8.32;84.21
76229;BME280;65021;53.174;18.160;2023-01-15T09:24:14;99319.21;;;8.32;84.14
76229;BME280;65021;53.174;18.160;2023-01-15T09:26:40;99317.06;;;8.34;84.17
76229;BME280;65021;53.174;18.160;2023-01-15T09:29:07;99318.01;;;8.35;84.35
76229;BME280;65021;53.174;18.160;2023-01-15T09:31:34;99321.67;;;8.37;84.30
76229;BME280;65021;53.174;18.160;2023-01-15T09:34:01;99314.38;;;8.39;84.42
76229;BME280;65021;53.174;18.160;2023-01-15T09:36:33;99315.21;;;8.40;84.42
76229;BME280;65021;53.174;18.160;2023-01-15T09:39:01;99318.83;;;8.42;84.59
76229;BME280;65021;53.174;18.160;2023-01-15T09:41:52;99317.77;;;8.40;84.78
76229;BME280;65021;53.174;18.160;2023-01-15T09:47:27;99306.99;;;8.43;84.50
76229;BME280;65021;53.174;18.160;2023-01-15T09:55:08;99306.77;;;8.44;84.69
76229;BME280;65021;53.174;18.160;2023-01-15T09:57:39;99306.70;;;8.43;84.67
76229;BME280;65021;53.174;18.160;2023-01-15T10:00:06;99304.39;;;8.43;84.92
76229;BME280;65021;53.174;18.160;2023-01-15T10:02:45;99306.94;;;8.43;84.99
76229;BME280;65021;53.174;18.160;2023-01-15T10:05:17;99304.40;;;8.45;85.00
76229;BME280;65021;53.174;18.160;2023-01-15T10:07:57;99306.73;;;8.45;85.11
76229;BME280;65021;53.174;18.160;2023-01-15T10:10:45;99316.81;;;8.45;85.27
76229;BME280;65021;53.174;18.160;2023-01-15T10:13:20;99317.73;;;8.45;85.64
76229;BME280;65021;53.174;18.160;2023-01-15T10:15:52;99327.48;;;8.44;85.66
76229;BME280;65021;53.174;18.160;2023-01-15T10:18:22;99350.70;;;8.37;86.10
76229;BME280;65021;53.174;18.160;2023-01-15T10:21:18;99347.48;;;8.18;84.89
76229;BME280;65021;53.174;18.160;2023-01-15T10:26:36;99379.13;;;7.27;82.82
76229;BME280;65021;53.174;18.160;2023-01-15T10:29:25;99395.83;;;6.93;83.63
76229;BME280;65021;53.174;18.160;2023-01-15T10:32:03;99407.99;;;6.63;83.91
76229;BME280;65021;53.174;18.160;2023-01-15T10:37:08;99417.10;;;6.24;84.26
76229;BME280;65021;53.174;18.160;2023-01-15T10:47:54;99418.42;;;5.95;84.50
76229;BME280;65021;53.174;18.160;2023-01-15T10:50:25;99414.20;;;5.89;84.46
76229;BME280;65021;53.174;18.160;2023-01-15T10:55:49;99407.80;;;5.96;84.17
76229;BME280;65021;53.174;18.160;2023-01-15T10:58:40;99415.66;;;6.01;84.13
76229;BME280;65021;53.174;18.160;2023-01-15T11:01:14;99424.90;;;6.00;84.08
76229;BME280;65021;53.174;18.160;2023-01-15T11:03:42;99430.61;;;5.91;83.97
76229;BME280;65021;53.174;18.160;2023-01-15T11:06:15;99428.17;;;5.88;84.03
76229;BME280;65021;53.174;18.160;2023-01-15T11:09:00;99435.36;;;5.89;84.02
76229;BME280;65021;53.174;18.160;2023-01-15T11:11:44;99442.88;;;5.92;83.92
76229;BME280;65021;53.174;18.160;2023-01-15T11:14:41;99460.86;;;5.93;83.85
76229;BME280;65021;53.174;18.160;2023-01-15T11:17:34;99469.73;;;5.92;83.81
76229;BME280;65021;53.174;18.160;2023-01-15T11:20:28;99457.77;;;5.93;83.89
76229;BME280;65021;53.174;18.160;2023-01-15T11:22:56;99452.20;;;5.93;83.93
76229;BME280;65021;53.174;18.160;2023-01-15T11:25:31;99458.10;;;5.93;83.86
76229;BME280;65021;53.174;18.160;2023-01-15T11:28:01;99443.98;;;5.93;84.08
76229;BME280;65021;53.174;18.160;2023-01-15T11:30:38;99445.82;;;5.94;83.96
76229;BME280;65021;53.174;18.160;2023-01-15T11:33:20;99449.81;;;5.99;83.80
76229;BME280;65021;53.174;18.160;2023-01-15T11:35:52;99456.33;;;6.02;83.72
76229;BME280;65021;53.174;18.160;2023-01-15T11:38:43;99458.50;;;6.03;83.80
76229;BME280;65021;53.174;18.160;2023-01-15T11:41:32;99464.54;;;6.08;83.85
76229;BME280;65021;53.174;18.160;2023-01-15T11:44:21;99463.15;;;6.10;83.73
76229;BME280;65021;53.174;18.160;2023-01-15T11:47:17;99457.77;;;6.14;83.65
76229;BME280;65021;53.174;18.160;2023-01-15T11:50:15;99469.75;;;6.18;83.61
76229;BME280;65021;53.174;18.160;2023-01-15T11:53:01;99469.76;;;6.22;83.55
76229;BME280;65021;53.174;18.160;2023-01-15T11:55:28;99467.36;;;6.23;83.64
76229;BME280;65021;53.174;18.160;2023-01-15T11:57:56;99477.05;;;6.19;83.53
76229;BME280;65021;53.174;18.160;2023-01-15T12:00:25;99481.70;;;6.14;83.57
76229;BME280;65021;53.174;18.160;2023-01-15T12:02:58;99486.11;;;6.08;83.50
76229;BME280;65021;53.174;18.160;2023-01-15T12:05:31;99487.76;;;6.01;83.55
76229;BME280;65021;53.174;18.160;2023-01-15T12:08:01;99499.52;;;5.99;83.49
76229;BME280;65021;53.174;18.160;2023-01-15T12:10:34;99498.75;;;5.99;83.55
76229;BME280;65021;53.174;18.160;2023-01-15T12:16:23;99482.99;;;5.88;83.43
76229;BME280;65021;53.174;18.160;2023-01-15T12:27:17;99477.29;;;5.93;83.62
76229;BME280;65021;53.174;18.160;2023-01-15T12:29:50;99472.70;;;5.98;83.68
76229;BME280;65021;53.174;18.160;2023-01-15T12:32:24;99472.27;;;6.02;83.43
76229;BME280;65021;53.174;18.160;2023-01-15T12:37:29;99464.33;;;6.11;83.42
76229;BME280;65021;53.174;18.160;2023-01-15T12:42:34;99479.80;;;6.16;83.55
76229;BME280;65021;53.174;18.160;2023-01-15T12:45:24;99499.77;;;6.15;83.63
76229;BME280;65021;53.174;18.160;2023-01-15T12:50:50;99512.72;;;6.11;83.63
76229;BME280;65021;53.174;18.160;2023-01-15T12:53:26;99505.84;;;6.13;83.44
76229;BME280;65021;53.174;18.160;2023-01-15T12:56:11;99504.98;;;6.13;83.35
76229;BME280;65021;53.174;18.160;2023-01-15T12:58:57;99509.70;;;6.15;83.40
76229;BME280;65021;53.174;18.160;2023-01-15T13:06:47;99509.85;;;6.23;83.36
76229;BME280;65021;53.174;18.160;2023-01-15T13:09:42;99502.30;;;6.28;83.38
76229;BME280;65021;53.174;18.160;2023-01-15T13:12:14;99505.39;;;6.27;83.31
76229;BME280;65021;53.174;18.160;2023-01-15T13:14:42;99515.74;;;6.26;83.19
76229;BME280;65021;53.174;18.160;2023-01-15T13:28:42;99561.63;;;5.93;83.24
76229;BME280;65021;53.174;18.160;2023-01-15T13:34:29;99553.92;;;5.84;83.34
76229;BME280;65021;53.174;18.160;2023-01-15T13:37:02;99547.98;;;5.80;83.31
76229;BME280;65021;53.174;18.160;2023-01-15T13:39:40;99555.70;;;5.79;83.26
76229;BME280;65021;53.174;18.160;2023-01-15T13:42:24;99547.75;;;5.76;83.17
76229;BME280;65021;53.174;18.160;2023-01-15T13:45:07;99532.25;;;5.71;83.05
76229;BME280;65021;53.174;18.160;2023-01-15T13:47:48;99521.11;;;5.67;83.20
76229;BME280;65021;53.174;18.160;2023-01-15T13:50:30;99515.91;;;5.64;83.23
76229;BME280;65021;53.174;18.160;2023-01-15T13:53:05;99523.30;;;5.65;83.07
76229;BME280;65021;53.174;18.160;2023-01-15T13:55:36;99530.75;;;5.64;83.21
76229;BME280;65021;53.174;18.160;2023-01-15T13:58:19;99534.30;;;5.63;83.24
76229;BME280;65021;53.174;18.160;2023-01-15T14:00:47;99537.85;;;5.59;83.11
76229;BME280;65021;53.174;18.160;2023-01-15T14:03:34;99534.23;;;5.54;83.08
76229;BME280;65021;53.174;18.160;2023-01-15T14:06:07;99533.02;;;5.49;83.11
76229;BME280;65021;53.174;18.160;2023-01-15T14:08:42;99531.13;;;5.46;83.06
76229;BME280;65021;53.174;18.160;2023-01-15T14:20:16;99553.97;;;5.37;82.97
76229;BME280;65021;53.174;18.160;2023-01-15T14:28:13;99569.14;;;5.16;83.24
76229;BME280;65021;53.174;18.160;2023-01-15T14:33:50;99567.90;;;5.06;83.42
76229;BME280;65021;53.174;18.160;2023-01-15T14:36:25;99570.20;;;5.03;83.39
76229;BME280;65021;53.174;18.160;2023-01-15T14:39:01;99570.94;;;5.03;83.37
76229;BME280;65021;53.174;18.160;2023-01-15T14:41:30;99567.29;;;5.02;83.25
76229;BME280;65021;53.174;18.160;2023-01-15T14:43:59;99564.58;;;5.02;83.35
76229;BME280;65021;53.174;18.160;2023-01-15T14:46:30;99561.69;;;5.02;83.36
76229;BME280;65021;53.174;18.160;2023-01-15T14:49:00;99562.73;;;5.03;83.23
76229;BME280;65021;53.174;18.160;2023-01-15T14:51:30;99555.02;;;5.04;83.21
76229;BME280;65021;53.174;18.160;2023-01-15T14:54:02;99551.45;;;5.04;83.25
76229;BME280;65021;53.174;18.160;2023-01-15T14:56:36;99556.15;;;5.04;83.27
76229;BME280;65021;53.174;18.160;2023-01-15T14:59:22;99565.60;;;5.02;83.26
76229;BME280;65021;53.174;18.160;2023-01-15T15:02:03;99577.27;;;4.99;83.40
76229;BME280;65021;53.174;18.160;2023-01-15T15:04:44;99580.05;;;4.95;83.34